Pagrindinis puslapis
METAR-TAF:

METAR-TAF

Oro uostai :

Hanojus, Vietnamas

platuma: 21-01N, ilguma: 105-48E, Aukštis: 6 m

Dabartinis oras

Ataskaita buvo paskelbta 28 minutes, ne 23:00 UTC
Vėjas 2 kt iš Šiaurės/Šiaurės Vakarų
Temperatūra 25°C
Drėgmė 94%
Slėgis 1011 hPa
Matomumas: 3300 m
rūkana

METAR: VVNB 192300Z 33002KT 3300 BR NSC 25/24 Q1011 NOSIG

Laikas: 06:28 (23:28 UTC)

Prognozė

Ataskaita buvo paskelbta 6 valandos ir 28 minutes, ne 17:00 UTC
Prognozė galioja nuo 19 metu 18 UTC su 20 metu 18 UTC
Vėjas 5 kt iš Šiaurės
Matomumas: 6000 m
Išsisklaidę debesys ne aukštis 2000 ft
Laikinai
nuo 19 metu 18 UTC su 19 metu 21 UTC
Matomumas: 4500 m
Su prošvaistėmis ne aukštis 1300 ft
Apsiniaukę ne aukštis 5000 ft
lietus, rūkana

TAF: VVNB 191700Z 1918/2018 35005KT 6000 SCT020 TEMPO 1918/1921 4500 RA BR BKN013 OVC050

Orai ataskaitas ir orų prognozės (METAR, TAF).

turimą stotys yra geltonos ir raudonos taškus žemėlapyje.

Perkelti pele per norėdami pamatyti stoties vardą.

Tada spustelėkite, norėdami matyti oro stebėjimo ir prognozės.

Norėdami pakeisti žemėlapį: spustelėkite ant žalios mygtukų su juodo kryžiaus žemyn,; žalią mygtuką su brūkšneliu, jei norite nutolinti; arba žalių rodyklių gretimoms žemėlapius.


METAR-TAF: